DEPPW EDLW-EDLW

Flight info

Callsign DEPPW
Flight time 0h 8m
Altitude
Route DCT
Aircraft PA28A

Departure

Time 2026-04-30 18:13
Airport Dortmund Airport (EDLW)

Arrival

Time 2026-04-30 18:21
Airport Dortmund Airport (EDLW)
Time Latitude Longitude Altitude Speed Heading
2026-04-30 17:59 51.51195 7.60416 443 ft 0 kts 106°
2026-04-30 18:02 51.51212 7.60318 443 ft 25 kts 237°
2026-04-30 18:02 51.51306 7.60475 438 ft 38 kts 63°
2026-04-30 18:03 51.51548 7.61026 429 ft 14 kts 332°
2026-04-30 18:04 51.51532 7.60740 412 ft 7 kts 257°
2026-04-30 18:05 51.51530 7.60680 410 ft 5 kts 288°
2026-04-30 18:06 51.51624 7.60630 409 ft 0 kts 61°
2026-04-30 18:07 51.51767 7.61042 416 ft 63 kts 63°
2026-04-30 18:08 51.51792 7.63373 769 ft 116 kts 161°
2026-04-30 18:09 51.50301 7.59015 958 ft 127 kts 243°
2026-04-30 18:10 51.50243 7.56154 758 ft 85 kts 44°
2026-04-30 18:11 51.51401 7.59955 571 ft 73 kts 59°
2026-04-30 18:11 51.51993 7.61671 485 ft 68 kts 62°
2026-04-30 18:12 51.53345 7.61560 953 ft 111 kts 278°
2026-04-30 18:13 51.52748 7.59073 1098 ft 127 kts 243°
2026-04-30 18:13 51.51540 7.58856 950 ft 75 kts 103°
2026-04-30 18:14 51.51644 7.60669 426 ft 61 kts 59°
2026-04-30 18:15 51.52101 7.61996 452 ft 70 kts 56°
2026-04-30 18:15 51.51202 7.62480 920 ft 125 kts 224°
2026-04-30 18:16 51.50386 7.59869 905 ft 131 kts 233°
2026-04-30 18:16 51.49615 7.57441 989 ft 119 kts 270°
2026-04-30 18:17 51.50159 7.57398 1013 ft 102 kts 15°
2026-04-30 18:17 51.50688 7.58045 983 ft 103 kts 52°
2026-04-30 18:17 51.51381 7.59953 599 ft 81 kts 64°
2026-04-30 18:18 51.51664 7.60724 485 ft 91 kts 64°
2026-04-30 18:18 51.51988 7.61645 524 ft 98 kts 64°
2026-04-30 18:18 51.52346 7.62554 676 ft 97 kts 35°
2026-04-30 18:18 51.52822 7.62222 961 ft 103 kts 262°
2026-04-30 18:19 51.52900 7.60937 991 ft 118 kts 278°
2026-04-30 18:19 51.52952 7.59544 921 ft 131 kts 255°
2026-04-30 18:19 51.52534 7.58224 914 ft 127 kts 241°
2026-04-30 18:19 51.52149 7.57031 1127 ft 115 kts 233°
2026-04-30 18:20 51.51697 7.56841 1325 ft 86 kts 109°
2026-04-30 18:20 51.51470 7.57894 1110 ft 114 kts 105°
2026-04-30 18:20 51.51342 7.59030 812 ft 88 kts 75°
2026-04-30 18:20 51.51425 7.59863 589 ft 64 kts 65°
2026-04-30 18:21 51.51595 7.60516 468 ft 65 kts 66°
2026-04-30 18:21 51.51792 7.61107 414 ft 50 kts 62°
2026-04-30 18:21 51.51904 7.61453 412 ft 27 kts 60°
2026-04-30 18:21 51.52022 7.61781 411 ft 34 kts 59°
2026-04-30 18:22 51.52116 7.62049 414 ft 25 kts 66°
2026-04-30 18:22 51.52119 7.62376 412 ft 14 kts 148°
2026-04-30 18:22 51.52062 7.62396 410 ft 7 kts 231°
2026-04-30 18:23 51.52037 7.62342 410 ft 5 kts 237°
2026-04-30 18:23 51.52017 7.62288 411 ft 16 kts 240°
2026-04-30 18:23 51.51895 7.61946 413 ft 40 kts 243°
2026-04-30 18:23 51.51719 7.61444 427 ft 53 kts 240°
2026-04-30 18:24 51.51368 7.60634 435 ft 25 kts 245°
2026-04-30 18:24 51.51348 7.60584 440 ft 12 kts 236°
2026-04-30 18:24 51.51262 7.60347 435 ft 29 kts 242°
2026-04-30 18:25 51.51175 7.60176 441 ft 10 kts 160°
2026-04-30 18:25 51.51230 7.60399 439 ft 17 kts 60°
2026-04-30 18:25 51.51277 7.60534 442 ft 11 kts 63°